sensor_id;sensor_type;location;lat;lon;timestamp;pressure;altitude;pressure_sealevel;temperature
79089;BMP280;68489;50.286;9.452;2023-08-17T00:02:13;97640.59;;;18.81
79089;BMP280;68489;50.286;9.452;2023-08-17T00:04:40;97634.97;;;18.85
79089;BMP280;68489;50.286;9.452;2023-08-17T00:07:06;97638.16;;;18.89
79089;BMP280;68489;50.286;9.452;2023-08-17T00:09:31;97639.91;;;18.92
79089;BMP280;68489;50.286;9.452;2023-08-17T00:11:57;97637.41;;;18.94
79089;BMP280;68489;50.286;9.452;2023-08-17T00:14:23;97632.78;;;18.94
79089;BMP280;68489;50.286;9.452;2023-08-17T00:16:51;97635.97;;;18.98
79089;BMP280;68489;50.286;9.452;2023-08-17T00:19:16;97641.13;;;18.96
79089;BMP280;68489;50.286;9.452;2023-08-17T00:21:44;97618.38;;;18.97
79089;BMP280;68489;50.286;9.452;2023-08-17T00:24:09;97616.88;;;19.02
79089;BMP280;68489;50.286;9.452;2023-08-17T00:26:35;97621.78;;;19.09
79089;BMP280;68489;50.286;9.452;2023-08-17T00:29:00;97625.47;;;19.06
79089;BMP280;68489;50.286;9.452;2023-08-17T00:31:26;97623.03;;;19.08
79089;BMP280;68489;50.286;9.452;2023-08-17T00:33:51;97630.59;;;19.04
79089;BMP280;68489;50.286;9.452;2023-08-17T00:36:17;97627.44;;;19.06
79089;BMP280;68489;50.286;9.452;2023-08-17T00:38:42;97627.44;;;19.06
79089;BMP280;68489;50.286;9.452;2023-08-17T00:41:07;97623.75;;;19.03
79089;BMP280;68489;50.286;9.452;2023-08-17T00:43:32;97620.56;;;19.05
79089;BMP280;68489;50.286;9.452;2023-08-17T00:45:58;97616.88;;;19.08
79089;BMP280;68489;50.286;9.452;2023-08-17T00:48:23;97625.69;;;19.02
79089;BMP280;68489;50.286;9.452;2023-08-17T00:50:50;97618.09;;;19.01
79089;BMP280;68489;50.286;9.452;2023-08-17T00:53:18;97618.38;;;18.97
79089;BMP280;68489;50.286;9.452;2023-08-17T00:55:44;97613.44;;;18.96
79089;BMP280;68489;50.286;9.452;2023-08-17T00:58:09;97609.75;;;18.93
79089;BMP280;68489;50.286;9.452;2023-08-17T01:00:35;97617.81;;;18.93
79089;BMP280;68489;50.286;9.452;2023-08-17T01:03:00;97618.06;;;18.90
79089;BMP280;68489;50.286;9.452;2023-08-17T01:05:25;97616.09;;;18.85
79089;BMP280;68489;50.286;9.452;2023-08-17T01:07:51;97610.44;;;18.77
79089;BMP280;68489;50.286;9.452;2023-08-17T01:10:16;97607.25;;;18.67
79089;BMP280;68489;50.286;9.452;2023-08-17T01:13:02;97600.88;;;18.65
79089;BMP280;68489;50.286;9.452;2023-08-17T01:15:38;97604.03;;;18.63
79089;BMP280;68489;50.286;9.452;2023-08-17T01:20:40;97593.97;;;18.53
79089;BMP280;68489;50.286;9.452;2023-08-17T01:23:08;97590.78;;;18.49
79089;BMP280;68489;50.286;9.452;2023-08-17T01:25:34;97585.59;;;18.34
79089;BMP280;68489;50.286;9.452;2023-08-17T01:28:04;97587.06;;;18.35
79089;BMP280;68489;50.286;9.452;2023-08-17T01:30:33;97573.59;;;18.35
79089;BMP280;68489;50.286;9.452;2023-08-17T01:33:08;97571.66;;;18.35
79089;BMP280;68489;50.286;9.452;2023-08-17T01:35:39;97563.09;;;18.37
79089;BMP280;68489;50.286;9.452;2023-08-17T01:38:11;97568.97;;;18.41
79089;BMP280;68489;50.286;9.452;2023-08-17T01:40:37;97562.38;;;18.36
79089;BMP280;68489;50.286;9.452;2023-08-17T01:43:02;97560.16;;;18.40
79089;BMP280;68489;50.286;9.452;2023-08-17T01:45:28;97570.19;;;18.40
79089;BMP280;68489;50.286;9.452;2023-08-17T01:47:55;97570.69;;;18.44
79089;BMP280;68489;50.286;9.452;2023-08-17T01:50:20;97565.28;;;18.38
79089;BMP280;68489;50.286;9.452;2023-08-17T01:52:45;97569.94;;;18.43
79089;BMP280;68489;50.286;9.452;2023-08-17T01:55:11;97561.88;;;18.43
79089;BMP280;68489;50.286;9.452;2023-08-17T01:57:36;97559.44;;;18.45
79089;BMP280;68489;50.286;9.452;2023-08-17T02:00:03;97539.34;;;18.41
79089;BMP280;68489;50.286;9.452;2023-08-17T02:02:30;97540.09;;;18.41
79089;BMP280;68489;50.286;9.452;2023-08-17T02:04:55;97544.00;;;18.40
79089;BMP280;68489;50.286;9.452;2023-08-17T02:07:20;97536.38;;;18.33
79089;BMP280;68489;50.286;9.452;2023-08-17T02:09:45;97540.06;;;18.36
79089;BMP280;68489;50.286;9.452;2023-08-17T02:12:11;97541.56;;;18.37
79089;BMP280;68489;50.286;9.452;2023-08-17T02:14:36;97532.00;;;18.36
79089;BMP280;68489;50.286;9.452;2023-08-17T02:17:01;97534.47;;;18.39
79089;BMP280;68489;50.286;9.452;2023-08-17T02:19:26;97533.97;;;18.41
79089;BMP280;68489;50.286;9.452;2023-08-17T02:21:52;97527.59;;;18.38
79089;BMP280;68489;50.286;9.452;2023-08-17T02:24:17;97520.72;;;18.37
79089;BMP280;68489;50.286;9.452;2023-08-17T02:26:42;97520.28;;;18.39
79089;BMP280;68489;50.286;9.452;2023-08-17T02:29:07;97523.91;;;18.36
79089;BMP280;68489;50.286;9.452;2023-08-17T02:31:33;97526.81;;;18.32
79089;BMP280;68489;50.286;9.452;2023-08-17T02:33:58;97518.28;;;18.34
79089;BMP280;68489;50.286;9.452;2023-08-17T02:36:26;97521.22;;;18.30
79089;BMP280;68489;50.286;9.452;2023-08-17T02:38:52;97522.00;;;18.36
79089;BMP280;68489;50.286;9.452;2023-08-17T02:41:17;97533.94;;;18.35
79089;BMP280;68489;50.286;9.452;2023-08-17T02:43:42;97531.50;;;18.32
79089;BMP280;68489;50.286;9.452;2023-08-17T02:46:07;97529.03;;;18.28
79089;BMP280;68489;50.286;9.452;2023-08-17T02:48:33;97528.03;;;18.20
79089;BMP280;68489;50.286;9.452;2023-08-17T02:50:58;97528.78;;;18.26
79089;BMP280;68489;50.286;9.452;2023-08-17T02:53:23;97529.22;;;18.19
79089;BMP280;68489;50.286;9.452;2023-08-17T02:55:49;97528.50;;;18.18
79089;BMP280;68489;50.286;9.452;2023-08-17T02:58:14;97538.81;;;18.20
79089;BMP280;68489;50.286;9.452;2023-08-17T03:00:39;97530.47;;;18.12
79089;BMP280;68489;50.286;9.452;2023-08-17T03:03:04;97527.56;;;18.27
79089;BMP280;68489;50.286;9.452;2023-08-17T03:05:30;97524.06;;;18.10
79089;BMP280;68489;50.286;9.452;2023-08-17T03:07:55;97520.91;;;18.11
79089;BMP280;68489;50.286;9.452;2023-08-17T03:10:21;97525.03;;;18.07
79089;BMP280;68489;50.286;9.452;2023-08-17T03:12:46;97532.41;;;18.12
79089;BMP280;68489;50.286;9.452;2023-08-17T03:15:11;97531.19;;;18.18
79089;BMP280;68489;50.286;9.452;2023-08-17T03:17:36;97524.88;;;18.27
79089;BMP280;68489;50.286;9.452;2023-08-17T03:20:02;97531.50;;;18.32
79089;BMP280;68489;50.286;9.452;2023-08-17T03:22:27;97528.56;;;18.35
79089;BMP280;68489;50.286;9.452;2023-08-17T03:24:55;97521.97;;;18.31
79089;BMP280;68489;50.286;9.452;2023-08-17T03:27:20;97518.03;;;18.26
79089;BMP280;68489;50.286;9.452;2023-08-17T03:29:45;97522.13;;;18.16
79089;BMP280;68489;50.286;9.452;2023-08-17T03:32:10;97525.59;;;18.22
79089;BMP280;68489;50.286;9.452;2023-08-17T03:34:36;97519.72;;;18.24
79089;BMP280;68489;50.286;9.452;2023-08-17T03:37:01;97521.66;;;18.23
79089;BMP280;68489;50.286;9.452;2023-08-17T03:39:26;97533.44;;;18.26
79089;BMP280;68489;50.286;9.452;2023-08-17T03:41:51;97538.81;;;18.26
79089;BMP280;68489;50.286;9.452;2023-08-17T03:44:17;97537.16;;;18.39
79089;BMP280;68489;50.286;9.452;2023-08-17T03:46:42;97531.47;;;18.26
79089;BMP280;68489;50.286;9.452;2023-08-17T03:49:07;97543.50;;;18.31
79089;BMP280;68489;50.286;9.452;2023-08-17T03:51:32;97545.69;;;18.27
79089;BMP280;68489;50.286;9.452;2023-08-17T03:53:58;97550.34;;;18.32
79089;BMP280;68489;50.286;9.452;2023-08-17T03:56:23;97550.34;;;18.32
79089;BMP280;68489;50.286;9.452;2023-08-17T03:58:49;97550.59;;;18.34
79089;BMP280;68489;50.286;9.452;2023-08-17T04:01:15;97557.03;;;18.59
79089;BMP280;68489;50.286;9.452;2023-08-17T04:03:40;97550.13;;;18.46
79089;BMP280;68489;50.286;9.452;2023-08-17T04:06:06;97551.84;;;18.44
79089;BMP280;68489;50.286;9.452;2023-08-17T04:08:32;97553.56;;;18.41
79089;BMP280;68489;50.286;9.452;2023-08-17T04:10:57;97559.09;;;18.21
79089;BMP280;68489;50.286;9.452;2023-08-17T04:13:22;97565.72;;;18.20
79089;BMP280;68489;50.286;9.452;2023-08-17T04:15:47;97565.16;;;18.10
79089;BMP280;68489;50.286;9.452;2023-08-17T04:18:13;97563.63;;;17.92
79089;BMP280;68489;50.286;9.452;2023-08-17T04:20:38;97569.00;;;17.92
79089;BMP280;68489;50.286;9.452;2023-08-17T04:23:03;97566.34;;;17.98
79089;BMP280;68489;50.286;9.452;2023-08-17T04:25:29;97568.78;;;17.96
79089;BMP280;68489;50.286;9.452;2023-08-17T04:27:54;97570.00;;;17.95
79089;BMP280;68489;50.286;9.452;2023-08-17T04:30:19;97567.97;;;17.79
79089;BMP280;68489;50.286;9.452;2023-08-17T04:32:44;97581.88;;;17.77
79089;BMP280;68489;50.286;9.452;2023-08-17T04:35:15;97581.88;;;17.77
79089;BMP280;68489;50.286;9.452;2023-08-17T04:37:41;97583.38;;;17.78
79089;BMP280;68489;50.286;9.452;2023-08-17T04:40:06;97580.91;;;17.80
79089;BMP280;68489;50.286;9.452;2023-08-17T04:42:32;97584.16;;;17.90
79089;BMP280;68489;50.286;9.452;2023-08-17T04:44:57;97585.69;;;18.02
79089;BMP280;68489;50.286;9.452;2023-08-17T04:47:22;97580.78;;;18.01
79089;BMP280;68489;50.286;9.452;2023-08-17T04:49:48;97588.16;;;18.06
79089;BMP280;68489;50.286;9.452;2023-08-17T04:52:13;97586.25;;;18.12
79089;BMP280;68489;50.286;9.452;2023-08-17T04:54:38;97583.59;;;18.17
79089;BMP280;68489;50.286;9.452;2023-08-17T04:57:03;97592.34;;;18.18
79089;BMP280;68489;50.286;9.452;2023-08-17T04:59:30;97591.47;;;18.38
79089;BMP280;68489;50.286;9.452;2023-08-17T05:01:56;97586.34;;;18.40
79089;BMP280;68489;50.286;9.452;2023-08-17T05:04:21;97578.06;;;18.49
79089;BMP280;68489;50.286;9.452;2023-08-17T05:06:46;97588.31;;;18.39
79089;BMP280;68489;50.286;9.452;2023-08-17T05:09:11;97584.44;;;18.57
79089;BMP280;68489;50.286;9.452;2023-08-17T05:11:37;97584.44;;;18.57
79089;BMP280;68489;50.286;9.452;2023-08-17T05:14:02;97589.38;;;18.64
79089;BMP280;68489;50.286;9.452;2023-08-17T05:16:27;97585.69;;;18.62
79089;BMP280;68489;50.286;9.452;2023-08-17T05:18:52;97589.56;;;18.61
79089;BMP280;68489;50.286;9.452;2023-08-17T05:21:18;97596.75;;;18.75
79089;BMP280;68489;50.286;9.452;2023-08-17T05:23:43;97590.38;;;18.84
79089;BMP280;68489;50.286;9.452;2023-08-17T05:26:09;97591.63;;;18.94
79089;BMP280;68489;50.286;9.452;2023-08-17T05:28:34;97589.19;;;18.96
79089;BMP280;68489;50.286;9.452;2023-08-17T05:31:05;97594.81;;;19.04
79089;BMP280;68489;50.286;9.452;2023-08-17T05:33:30;97592.88;;;19.10
79089;BMP280;68489;50.286;9.452;2023-08-17T05:35:56;97598.75;;;19.08
79089;BMP280;68489;50.286;9.452;2023-08-17T05:38:21;97588.47;;;19.18
79089;BMP280;68489;50.286;9.452;2023-08-17T05:40:46;97593.88;;;19.23
79089;BMP280;68489;50.286;9.452;2023-08-17T05:43:12;97590.44;;;19.23
79089;BMP280;68489;50.286;9.452;2023-08-17T05:45:37;97597.06;;;19.22
79089;BMP280;68489;50.286;9.452;2023-08-17T05:48:02;97597.78;;;19.45
79089;BMP280;68489;50.286;9.452;2023-08-17T05:50:28;97593.34;;;19.59
79089;BMP280;68489;50.286;9.452;2023-08-17T05:52:54;97593.84;;;19.40
79089;BMP280;68489;50.286;9.452;2023-08-17T05:55:20;97589.19;;;19.41
79089;BMP280;68489;50.286;9.452;2023-08-17T05:57:45;97588.22;;;19.33
79089;BMP280;68489;50.286;9.452;2023-08-17T06:00:11;97596.81;;;19.31
79089;BMP280;68489;50.286;9.452;2023-08-17T06:02:37;97597.06;;;19.39
79089;BMP280;68489;50.286;9.452;2023-08-17T06:05:03;97601.22;;;19.34
79089;BMP280;68489;50.286;9.452;2023-08-17T06:07:28;97606.88;;;19.42
79089;BMP280;68489;50.286;9.452;2023-08-17T06:09:53;97603.19;;;19.45
79089;BMP280;68489;50.286;9.452;2023-08-17T06:12:19;97615.22;;;19.61
79089;BMP280;68489;50.286;9.452;2023-08-17T06:14:44;97615.38;;;19.85
79089;BMP280;68489;50.286;9.452;2023-08-17T06:17:09;97612.91;;;19.98
79089;BMP280;68489;50.286;9.452;2023-08-17T06:19:35;97612.69;;;19.85
79089;BMP280;68489;50.286;9.452;2023-08-17T06:22:00;97605.84;;;19.73
79089;BMP280;68489;50.286;9.452;2023-08-17T06:24:25;97607.81;;;19.61
79089;BMP280;68489;50.286;9.452;2023-08-17T06:26:50;97602.69;;;19.58
79089;BMP280;68489;50.286;9.452;2023-08-17T06:29:16;97604.88;;;19.53
79089;BMP280;68489;50.286;9.452;2023-08-17T06:31:41;97604.88;;;19.65
79089;BMP280;68489;50.286;9.452;2023-08-17T06:34:06;97615.66;;;19.81
79089;BMP280;68489;50.286;9.452;2023-08-17T06:36:32;97607.78;;;19.83
79089;BMP280;68489;50.286;9.452;2023-08-17T06:38:57;97615.38;;;19.96
79089;BMP280;68489;50.286;9.452;2023-08-17T06:41:23;97616.59;;;19.84
79089;BMP280;68489;50.286;9.452;2023-08-17T06:43:49;97615.38;;;19.96
79089;BMP280;68489;50.286;9.452;2023-08-17T06:46:15;97615.59;;;20.04
79089;BMP280;68489;50.286;9.452;2023-08-17T06:48:40;97625.41;;;20.01
79089;BMP280;68489;50.286;9.452;2023-08-17T06:51:05;97621.22;;;20.06
79089;BMP280;68489;50.286;9.452;2023-08-17T06:53:32;97618.78;;;20.08
79089;BMP280;68489;50.286;9.452;2023-08-17T06:55:58;97617.09;;;20.05
79089;BMP280;68489;50.286;9.452;2023-08-17T06:58:23;97617.72;;;20.22
79089;BMP280;68489;50.286;9.452;2023-08-17T07:00:48;97613.13;;;20.11
79089;BMP280;68489;50.286;9.452;2023-08-17T07:03:13;97609.41;;;20.20
79089;BMP280;68489;50.286;9.452;2023-08-17T07:05:39;97619.47;;;20.20
79089;BMP280;68489;50.286;9.452;2023-08-17T07:08:04;97617.47;;;20.26
79089;BMP280;68489;50.286;9.452;2023-08-17T07:10:30;97623.13;;;20.28
79089;BMP280;68489;50.286;9.452;2023-08-17T07:12:55;97622.84;;;20.37
79089;BMP280;68489;50.286;9.452;2023-08-17T07:15:20;97629.19;;;20.39
79089;BMP280;68489;50.286;9.452;2023-08-17T07:17:46;97629.38;;;20.53
79089;BMP280;68489;50.286;9.452;2023-08-17T07:20:11;97635.72;;;20.66
79089;BMP280;68489;50.286;9.452;2023-08-17T07:22:36;97630.50;;;20.80
79089;BMP280;68489;50.286;9.452;2023-08-17T07:25:02;97621.91;;;20.76
79089;BMP280;68489;50.286;9.452;2023-08-17T07:27:28;97627.06;;;20.79
79089;BMP280;68489;50.286;9.452;2023-08-17T07:29:54;97628.06;;;20.76
79089;BMP280;68489;50.286;9.452;2023-08-17T07:32:19;97628.25;;;20.84
79089;BMP280;68489;50.286;9.452;2023-08-17T07:34:46;97636.38;;;20.78
79089;BMP280;68489;50.286;9.452;2023-08-17T07:37:11;97635.28;;;20.98
79089;BMP280;68489;50.286;9.452;2023-08-17T07:39:36;97634.44;;;21.14
79089;BMP280;68489;50.286;9.452;2023-08-17T07:42:01;97636.34;;;21.19
79089;BMP280;68489;50.286;9.452;2023-08-17T07:44:27;97638.34;;;21.19
79089;BMP280;68489;50.286;9.452;2023-08-17T07:46:53;97644.47;;;21.19
79089;BMP280;68489;50.286;9.452;2023-08-17T07:49:19;97644.94;;;21.23
79089;BMP280;68489;50.286;9.452;2023-08-17T07:51:45;97646.91;;;21.23
79089;BMP280;68489;50.286;9.452;2023-08-17T07:54:10;97642.50;;;21.20
79089;BMP280;68489;50.286;9.452;2023-08-17T07:56:36;97644.44;;;21.25
79089;BMP280;68489;50.286;9.452;2023-08-17T07:59:01;97642.94;;;21.30
79089;BMP280;68489;50.286;9.452;2023-08-17T08:01:26;97639.81;;;21.50
79089;BMP280;68489;50.286;9.452;2023-08-17T08:03:51;97634.56;;;21.58
79089;BMP280;68489;50.286;9.452;2023-08-17T08:06:17;97625.72;;;21.57
79089;BMP280;68489;50.286;9.452;2023-08-17T08:08:42;97632.16;;;21.54
79089;BMP280;68489;50.286;9.452;2023-08-17T08:11:07;97625.06;;;21.51
79089;BMP280;68489;50.286;9.452;2023-08-17T08:13:33;97626.50;;;21.52
79089;BMP280;68489;50.286;9.452;2023-08-17T08:15:58;97624.41;;;21.64
79089;BMP280;68489;50.286;9.452;2023-08-17T08:18:24;97623.25;;;21.84
79089;BMP280;68489;50.286;9.452;2023-08-17T08:20:50;97626.16;;;21.86
79089;BMP280;68489;50.286;9.452;2023-08-17T08:23:15;97623.75;;;22.06
79089;BMP280;68489;50.286;9.452;2023-08-17T08:25:40;97637.13;;;21.99
79089;BMP280;68489;50.286;9.452;2023-08-17T08:28:06;97625.47;;;22.04
79089;BMP280;68489;50.286;9.452;2023-08-17T08:30:31;97621.97;;;22.09
79089;BMP280;68489;50.286;9.452;2023-08-17T08:32:56;97633.50;;;22.15
79089;BMP280;68489;50.286;9.452;2023-08-17T08:35:23;97629.25;;;22.20
79089;BMP280;68489;50.286;9.452;2023-08-17T08:37:49;97626.59;;;22.33
79089;BMP280;68489;50.286;9.452;2023-08-17T08:40:16;97631.00;;;22.55
79089;BMP280;68489;50.286;9.452;2023-08-17T08:42:42;97623.72;;;22.63
79089;BMP280;68489;50.286;9.452;2023-08-17T08:45:08;97628.50;;;22.76
79089;BMP280;68489;50.286;9.452;2023-08-17T08:47:35;97628.63;;;22.83
79089;BMP280;68489;50.286;9.452;2023-08-17T08:50:03;97619.16;;;22.90
79089;BMP280;68489;50.286;9.452;2023-08-17T08:52:36;97622.66;;;23.04
79089;BMP280;68489;50.286;9.452;2023-08-17T08:55:32;97616.41;;;23.09
79089;BMP280;68489;50.286;9.452;2023-08-17T08:57:59;97620.72;;;23.31
79089;BMP280;68489;50.286;9.452;2023-08-17T09:00:25;97624.59;;;23.22
79089;BMP280;68489;50.286;9.452;2023-08-17T09:02:51;97624.69;;;23.30
79089;BMP280;68489;50.286;9.452;2023-08-17T09:05:17;97622.72;;;23.57
79089;BMP280;68489;50.286;9.452;2023-08-17T09:07:43;97612.91;;;23.53
79089;BMP280;68489;50.286;9.452;2023-08-17T09:10:11;97624.50;;;23.41
79089;BMP280;68489;50.286;9.452;2023-08-17T09:12:36;97622.41;;;23.34
79089;BMP280;68489;50.286;9.452;2023-08-17T09:15:02;97617.19;;;23.36
79089;BMP280;68489;50.286;9.452;2023-08-17T09:17:28;97617.00;;;23.47
79089;BMP280;68489;50.286;9.452;2023-08-17T09:19:54;97616.56;;;23.43
79089;BMP280;68489;50.286;9.452;2023-08-17T09:22:36;97615.34;;;23.44
79089;BMP280;68489;50.286;9.452;2023-08-17T09:25:02;97614.81;;;23.59
79089;BMP280;68489;50.286;9.452;2023-08-17T09:27:28;97617.00;;;23.47
79089;BMP280;68489;50.286;9.452;2023-08-17T09:30:04;97614.47;;;23.75
79089;BMP280;68489;50.286;9.452;2023-08-17T09:32:31;97609.06;;;23.75
79089;BMP280;68489;50.286;9.452;2023-08-17T09:34:57;97616.47;;;23.88
79089;BMP280;68489;50.286;9.452;2023-08-17T09:37:22;97624.59;;;24.15
79089;BMP280;68489;50.286;9.452;2023-08-17T09:39:48;97621.94;;;24.22
79089;BMP280;68489;50.286;9.452;2023-08-17T09:42:14;97616.31;;;24.54
79089;BMP280;68489;50.286;9.452;2023-08-17T09:44:41;97620.88;;;24.59
79089;BMP280;68489;50.286;9.452;2023-08-17T09:47:07;97612.34;;;24.55
79089;BMP280;68489;50.286;9.452;2023-08-17T09:49:33;97615.53;;;24.88
79089;BMP280;68489;50.286;9.452;2023-08-17T09:52:01;97615.28;;;24.78
79089;BMP280;68489;50.286;9.452;2023-08-17T09:54:30;97618.66;;;24.92
79089;BMP280;68489;50.286;9.452;2023-08-17T09:56:56;97613.78;;;25.19
79089;BMP280;68489;50.286;9.452;2023-08-17T09:59:22;97610.69;;;25.43
79089;BMP280;68489;50.286;9.452;2023-08-17T10:01:49;97608.78;;;25.59
79089;BMP280;68489;50.286;9.452;2023-08-17T10:04:21;97607.59;;;25.83
79089;BMP280;68489;50.286;9.452;2023-08-17T10:06:48;97602.91;;;25.91
79089;BMP280;68489;50.286;9.452;2023-08-17T10:09:19;97605.28;;;26.02
79089;BMP280;68489;50.286;9.452;2023-08-17T10:11:49;97601.91;;;26.17
79089;BMP280;68489;50.286;9.452;2023-08-17T10:14:22;97598.31;;;26.22
79089;BMP280;68489;50.286;9.452;2023-08-17T10:16:57;97607.03;;;26.43
79089;BMP280;68489;50.286;9.452;2023-08-17T10:19:51;97607.63;;;26.49
79089;BMP280;68489;50.286;9.452;2023-08-17T10:22:26;97601.06;;;26.45
79089;BMP280;68489;50.286;9.452;2023-08-17T10:24:55;97604.16;;;26.87
79089;BMP280;68489;50.286;9.452;2023-08-17T10:27:21;97600.16;;;26.88
79089;BMP280;68489;50.286;9.452;2023-08-17T10:29:47;97605.06;;;27.05
79089;BMP280;68489;50.286;9.452;2023-08-17T10:32:13;97603.75;;;27.29
79089;BMP280;68489;50.286;9.452;2023-08-17T10:34:38;97604.72;;;27.16
79089;BMP280;68489;50.286;9.452;2023-08-17T10:37:05;97601.19;;;27.31
79089;BMP280;68489;50.286;9.452;2023-08-17T10:39:31;97602.16;;;27.03
79089;BMP280;68489;50.286;9.452;2023-08-17T10:41:57;97595.97;;;27.10
79089;BMP280;68489;50.286;9.452;2023-08-17T10:44:44;97597.75;;;27.15
79089;BMP280;68489;50.286;9.452;2023-08-17T10:47:26;97596.72;;;27.03
79089;BMP280;68489;50.286;9.452;2023-08-17T10:49:56;97597.63;;;27.13
79089;BMP280;68489;50.286;9.452;2023-08-17T10:52:33;97588.91;;;26.99
79089;BMP280;68489;50.286;9.452;2023-08-17T10:55:00;97592.72;;;26.89
79089;BMP280;68489;50.286;9.452;2023-08-17T10:57:34;97590.53;;;26.79
79089;BMP280;68489;50.286;9.452;2023-08-17T11:00:17;97588.91;;;26.84
79089;BMP280;68489;50.286;9.452;2023-08-17T11:02:52;97593.25;;;27.02
79089;BMP280;68489;50.286;9.452;2023-08-17T11:08:07;97587.25;;;27.59
79089;BMP280;68489;50.286;9.452;2023-08-17T11:10:34;97590.31;;;27.71
79089;BMP280;68489;50.286;9.452;2023-08-17T11:12:59;97584.41;;;27.50
79089;BMP280;68489;50.286;9.452;2023-08-17T11:15:26;97591.91;;;27.34
79089;BMP280;68489;50.286;9.452;2023-08-17T11:17:59;97585.53;;;27.39
79089;BMP280;68489;50.286;9.452;2023-08-17T11:20:24;97589.38;;;27.28
79089;BMP280;68489;50.286;9.452;2023-08-17T11:22:49;97587.53;;;27.31
79089;BMP280;68489;50.286;9.452;2023-08-17T11:25:15;97589.34;;;27.36
79089;BMP280;68489;50.286;9.452;2023-08-17T11:27:41;97578.38;;;27.51
79089;BMP280;68489;50.286;9.452;2023-08-17T11:30:06;97579.38;;;27.71
79089;BMP280;68489;50.286;9.452;2023-08-17T11:32:33;97585.19;;;27.75
79089;BMP280;68489;50.286;9.452;2023-08-17T11:34:58;97580.84;;;27.72
79089;BMP280;68489;50.286;9.452;2023-08-17T11:37:23;97582.97;;;27.81
79089;BMP280;68489;50.286;9.452;2023-08-17T11:39:48;97583.69;;;27.89
79089;BMP280;68489;50.286;9.452;2023-08-17T11:42:14;97582.06;;;28.11
79089;BMP280;68489;50.286;9.452;2023-08-17T11:44:39;97583.78;;;28.31
79089;BMP280;68489;50.286;9.452;2023-08-17T11:47:05;97588.56;;;28.48
79089;BMP280;68489;50.286;9.452;2023-08-17T11:49:31;97583.66;;;28.47
79089;BMP280;68489;50.286;9.452;2023-08-17T11:51:56;97584.13;;;28.78
79089;BMP280;68489;50.286;9.452;2023-08-17T11:54:22;97576.19;;;29.07
79089;BMP280;68489;50.286;9.452;2023-08-17T11:56:47;97583.34;;;28.85
79089;BMP280;68489;50.286;9.452;2023-08-17T11:59:13;97582.28;;;28.80
79089;BMP280;68489;50.286;9.452;2023-08-17T12:01:44;97585.53;;;29.21
79089;BMP280;68489;50.286;9.452;2023-08-17T12:04:10;97587.09;;;29.41
79089;BMP280;68489;50.286;9.452;2023-08-17T12:06:40;97595.31;;;29.41
79089;BMP280;68489;50.286;9.452;2023-08-17T12:09:07;97594.19;;;29.62
79089;BMP280;68489;50.286;9.452;2023-08-17T12:11:33;97593.09;;;29.74
79089;BMP280;68489;50.286;9.452;2023-08-17T12:13:58;97588.88;;;30.27
79089;BMP280;68489;50.286;9.452;2023-08-17T12:16:24;97583.34;;;30.83
79089;BMP280;68489;50.286;9.452;2023-08-17T12:18:50;97589.22;;;30.41
79089;BMP280;68489;50.286;9.452;2023-08-17T12:21:16;97581.53;;;30.30
79089;BMP280;68489;50.286;9.452;2023-08-17T12:23:41;97577.16;;;30.27
79089;BMP280;68489;50.286;9.452;2023-08-17T12:26:08;97571.53;;;30.71
79089;BMP280;68489;50.286;9.452;2023-08-17T12:28:33;97566.41;;;30.48
79089;BMP280;68489;50.286;9.452;2023-08-17T12:31:02;97566.97;;;30.37
79089;BMP280;68489;50.286;9.452;2023-08-17T12:33:28;97573.91;;;30.01
79089;BMP280;68489;50.286;9.452;2023-08-17T12:35:54;97567.88;;;29.76
79089;BMP280;68489;50.286;9.452;2023-08-17T12:38:19;97569.47;;;29.79
79089;BMP280;68489;50.286;9.452;2023-08-17T12:40:45;97569.09;;;29.92
79089;BMP280;68489;50.286;9.452;2023-08-17T12:43:10;97561.41;;;29.81
79089;BMP280;68489;50.286;9.452;2023-08-17T12:45:35;97566.69;;;30.06
79089;BMP280;68489;50.286;9.452;2023-08-17T12:48:00;97562.41;;;30.12
79089;BMP280;68489;50.286;9.452;2023-08-17T12:50:26;97558.38;;;30.13
79089;BMP280;68489;50.286;9.452;2023-08-17T12:52:51;97572.03;;;29.67
79089;BMP280;68489;50.286;9.452;2023-08-17T12:55:16;97569.44;;;29.69
79089;BMP280;68489;50.286;9.452;2023-08-17T12:57:41;97569.44;;;29.69
79089;BMP280;68489;50.286;9.452;2023-08-17T13:00:07;97568.34;;;29.82
79089;BMP280;68489;50.286;9.452;2023-08-17T13:02:34;97569.38;;;29.86
79089;BMP280;68489;50.286;9.452;2023-08-17T13:04:59;97570.56;;;30.30
79089;BMP280;68489;50.286;9.452;2023-08-17T13:07:24;97568.56;;;30.40
79089;BMP280;68489;50.286;9.452;2023-08-17T13:09:49;97571.19;;;30.67
79089;BMP280;68489;50.286;9.452;2023-08-17T13:12:15;97568.31;;;30.74
79089;BMP280;68489;50.286;9.452;2023-08-17T13:14:40;97564.84;;;31.03
79089;BMP280;68489;50.286;9.452;2023-08-17T13:17:05;97565.13;;;31.16
79089;BMP280;68489;50.286;9.452;2023-08-17T13:19:30;97567.38;;;31.59
79089;BMP280;68489;50.286;9.452;2023-08-17T13:21:56;97569.16;;;31.54
79089;BMP280;68489;50.286;9.452;2023-08-17T13:24:21;97576.97;;;31.38
79089;BMP280;68489;50.286;9.452;2023-08-17T13:26:46;97573.66;;;31.11
79089;BMP280;68489;50.286;9.452;2023-08-17T13:29:12;97571.31;;;31.36
79089;BMP280;68489;50.286;9.452;2023-08-17T13:31:37;97566.25;;;31.33
79089;BMP280;68489;50.286;9.452;2023-08-17T13:34:03;97579.03;;;30.89
79089;BMP280;68489;50.286;9.452;2023-08-17T13:36:28;97561.97;;;31.01
79089;BMP280;68489;50.286;9.452;2023-08-17T13:38:53;97558.59;;;30.44
79089;BMP280;68489;50.286;9.452;2023-08-17T13:41:19;97559.66;;;30.12
79089;BMP280;68489;50.286;9.452;2023-08-17T13:43:44;97556.88;;;30.03
79089;BMP280;68489;50.286;9.452;2023-08-17T13:46:09;97566.69;;;30.06
79089;BMP280;68489;50.286;9.452;2023-08-17T13:48:35;97558.38;;;30.23
79089;BMP280;68489;50.286;9.452;2023-08-17T13:51:00;97561.22;;;30.52
79089;BMP280;68489;50.286;9.452;2023-08-17T13:53:25;97567.16;;;30.58
79089;BMP280;68489;50.286;9.452;2023-08-17T13:55:50;97555.88;;;30.64
79089;BMP280;68489;50.286;9.452;2023-08-17T13:58:16;97547.09;;;30.65
79089;BMP280;68489;50.286;9.452;2023-08-17T14:00:42;97545.38;;;30.79
79089;BMP280;68489;50.286;9.452;2023-08-17T14:03:08;97548.84;;;30.99
79089;BMP280;68489;50.286;9.452;2023-08-17T14:05:33;97538.00;;;30.82
79089;BMP280;68489;50.286;9.452;2023-08-17T14:07:58;97539.72;;;30.77
79089;BMP280;68489;50.286;9.452;2023-08-17T14:10:24;97533.94;;;30.93